sensor_id;sensor_type;location;lat;lon;timestamp;pressure;altitude;pressure_sealevel;temperature;humidity
72525;BME280;60547;48.502;8.996;2022-12-05T00:02:05;97713.31;;;2.21;89.09
72525;BME280;60547;48.502;8.996;2022-12-05T00:04:31;97700.34;;;2.11;89.65
72525;BME280;60547;48.502;8.996;2022-12-05T00:06:56;97695.22;;;2.06;89.76
72525;BME280;60547;48.502;8.996;2022-12-05T00:09:22;97699.16;;;2.12;89.28
72525;BME280;60547;48.502;8.996;2022-12-05T00:11:47;97708.59;;;2.15;88.66
72525;BME280;60547;48.502;8.996;2022-12-05T00:14:12;97712.09;;;2.08;88.70
72525;BME280;60547;48.502;8.996;2022-12-05T00:16:40;97720.34;;;2.15;88.33
72525;BME280;60547;48.502;8.996;2022-12-05T00:19:09;97721.53;;;2.18;89.26
72525;BME280;60547;48.502;8.996;2022-12-05T00:21:35;97715.25;;;2.17;88.87
72525;BME280;60547;48.502;8.996;2022-12-05T00:24:02;97721.56;;;2.21;89.01
72525;BME280;60547;48.502;8.996;2022-12-05T00:26:29;97715.28;;;2.21;88.95
72525;BME280;60547;48.502;8.996;2022-12-05T00:28:56;97730.19;;;2.27;89.34
72525;BME280;60547;48.502;8.996;2022-12-05T00:31:23;97729.00;;;2.24;89.53
72525;BME280;60547;48.502;8.996;2022-12-05T00:33:49;97729.78;;;2.21;89.04
72525;BME280;60547;48.502;8.996;2022-12-05T00:36:20;97742.75;;;2.24;89.52
72525;BME280;60547;48.502;8.996;2022-12-05T00:38:46;97749.78;;;2.22;89.29
72525;BME280;60547;48.502;8.996;2022-12-05T00:41:15;97750.97;;;2.21;89.44
72525;BME280;60547;48.502;8.996;2022-12-05T00:43:41;97757.25;;;2.25;89.91
72525;BME280;60547;48.502;8.996;2022-12-05T00:46:10;97770.97;;;2.25;89.76
72525;BME280;60547;48.502;8.996;2022-12-05T00:48:37;97773.31;;;2.23;89.84
72525;BME280;60547;48.502;8.996;2022-12-05T00:51:06;97775.66;;;2.21;89.89
72525;BME280;60547;48.502;8.996;2022-12-05T00:53:33;97782.63;;;2.08;91.03
72525;BME280;60547;48.502;8.996;2022-12-05T00:56:09;97773.28;;;2.19;91.09
72525;BME280;60547;48.502;8.996;2022-12-05T00:58:35;97777.63;;;2.24;90.52
72525;BME280;60547;48.502;8.996;2022-12-05T01:01:05;97786.69;;;2.32;90.32
72525;BME280;60547;48.502;8.996;2022-12-05T01:03:31;97784.69;;;2.25;90.56
72525;BME280;60547;48.502;8.996;2022-12-05T01:05:58;97782.72;;;2.22;90.04
72525;BME280;60547;48.502;8.996;2022-12-05T01:08:24;97776.41;;;2.14;90.17
72525;BME280;60547;48.502;8.996;2022-12-05T01:10:54;97776.38;;;2.11;90.83
72525;BME280;60547;48.502;8.996;2022-12-05T01:13:20;97772.06;;;2.06;90.80
72525;BME280;60547;48.502;8.996;2022-12-05T01:15:46;97777.97;;;2.15;90.75
72525;BME280;60547;48.502;8.996;2022-12-05T01:18:11;97785.88;;;2.24;90.33
72525;BME280;60547;48.502;8.996;2022-12-05T01:20:41;97781.94;;;2.21;90.22
72525;BME280;60547;48.502;8.996;2022-12-05T01:23:07;97790.56;;;2.23;90.21
72525;BME280;60547;48.502;8.996;2022-12-05T01:25:33;97792.16;;;2.24;90.10
72525;BME280;60547;48.502;8.996;2022-12-05T01:27:59;97792.50;;;2.19;89.60
72525;BME280;60547;48.502;8.996;2022-12-05T01:30:24;97780.72;;;2.15;89.57
72525;BME280;60547;48.502;8.996;2022-12-05T01:32:50;97786.63;;;2.21;90.62
72525;BME280;60547;48.502;8.996;2022-12-05T01:35:16;97775.63;;;2.17;90.48
72525;BME280;60547;48.502;8.996;2022-12-05T01:37:41;97780.75;;;2.22;90.72
72525;BME280;60547;48.502;8.996;2022-12-05T01:40:07;97766.13;;;1.97;90.29
72525;BME280;60547;48.502;8.996;2022-12-05T01:42:33;97786.50;;;1.96;90.40
72525;BME280;60547;48.502;8.996;2022-12-05T01:45:02;97744.81;;;1.73;91.02
72525;BME280;60547;48.502;8.996;2022-12-05T01:47:31;97791.53;;;1.87;91.81
72525;BME280;60547;48.502;8.996;2022-12-05T01:49:58;97795.88;;;1.91;91.23
72525;BME280;60547;48.502;8.996;2022-12-05T01:52:25;97805.38;;;2.08;90.63
72525;BME280;60547;48.502;8.996;2022-12-05T01:54:54;97797.16;;;2.08;90.91
72525;BME280;60547;48.502;8.996;2022-12-05T01:57:21;97803.81;;;2.07;91.42
72525;BME280;60547;48.502;8.996;2022-12-05T01:59:50;97806.59;;;2.14;90.95
72525;BME280;60547;48.502;8.996;2022-12-05T02:02:18;97808.91;;;2.09;91.33
72525;BME280;60547;48.502;8.996;2022-12-05T02:04:49;97815.84;;;1.92;92.44
72525;BME280;60547;48.502;8.996;2022-12-05T02:07:19;97816.97;;;1.84;91.85
72525;BME280;60547;48.502;8.996;2022-12-05T02:09:45;97833.56;;;2.02;92.27
72525;BME280;60547;48.502;8.996;2022-12-05T02:12:13;97830.06;;;2.08;91.96
72525;BME280;60547;48.502;8.996;2022-12-05T02:14:58;97836.00;;;2.14;91.38
72525;BME280;60547;48.502;8.996;2022-12-05T02:23:26;97848.25;;;2.31;91.34
72525;BME280;60547;48.502;8.996;2022-12-05T02:34:23;97839.28;;;2.41;91.49
72525;BME280;60547;48.502;8.996;2022-12-05T02:36:56;97824.38;;;2.38;91.37
72525;BME280;60547;48.502;8.996;2022-12-05T02:42:14;97798.41;;;2.21;92.26
72525;BME280;60547;48.502;8.996;2022-12-05T02:44:53;97807.81;;;2.24;91.92
72525;BME280;60547;48.502;8.996;2022-12-05T02:47:25;97804.66;;;2.18;92.07
72525;BME280;60547;48.502;8.996;2022-12-05T02:49:53;97811.75;;;2.23;92.24
72525;BME280;60547;48.502;8.996;2022-12-05T02:52:21;97832.09;;;2.15;92.54
72525;BME280;60547;48.502;8.996;2022-12-05T02:54:50;97821.84;;;2.08;92.56
72525;BME280;60547;48.502;8.996;2022-12-05T02:57:18;97805.75;;;2.03;93.11
72525;BME280;60547;48.502;8.996;2022-12-05T02:59:45;97817.94;;;2.09;92.48
72525;BME280;60547;48.502;8.996;2022-12-05T03:02:22;97831.00;;;2.34;92.25
72525;BME280;60547;48.502;8.996;2022-12-05T03:04:48;97834.56;;;2.38;92.64
72525;BME280;60547;48.502;8.996;2022-12-05T03:07:16;97838.53;;;2.44;92.02
72525;BME280;60547;48.502;8.996;2022-12-05T03:09:55;97841.66;;;2.46;92.07
72525;BME280;60547;48.502;8.996;2022-12-05T03:12:34;97836.59;;;2.48;92.26
72525;BME280;60547;48.502;8.996;2022-12-05T03:15:23;97818.53;;;2.47;91.79
72525;BME280;60547;48.502;8.996;2022-12-05T03:18:04;97826.78;;;2.47;92.06
72525;BME280;60547;48.502;8.996;2022-12-05T03:20:51;97833.00;;;2.37;92.37
72525;BME280;60547;48.502;8.996;2022-12-05T03:23:33;97824.78;;;2.44;91.93
72525;BME280;60547;48.502;8.996;2022-12-05T03:26:10;97804.75;;;2.36;91.92
72525;BME280;60547;48.502;8.996;2022-12-05T03:28:58;97817.31;;;2.41;92.41
72525;BME280;60547;48.502;8.996;2022-12-05T03:34:36;97809.00;;;2.26;91.89
72525;BME280;60547;48.502;8.996;2022-12-05T03:37:12;97816.09;;;2.31;92.20
72525;BME280;60547;48.502;8.996;2022-12-05T03:39:43;97817.22;;;2.23;92.56
72525;BME280;60547;48.502;8.996;2022-12-05T03:42:13;97821.56;;;2.28;93.40
72525;BME280;60547;48.502;8.996;2022-12-05T03:47:18;97812.56;;;2.31;92.70
72525;BME280;60547;48.502;8.996;2022-12-05T03:49:49;97802.69;;;2.19;92.93
72525;BME280;60547;48.502;8.996;2022-12-05T03:52:28;97828.22;;;2.26;93.16
72525;BME280;60547;48.502;8.996;2022-12-05T03:55:00;97824.22;;;2.13;92.11
72525;BME280;60547;48.502;8.996;2022-12-05T03:57:39;97832.09;;;2.18;92.90
72525;BME280;60547;48.502;8.996;2022-12-05T04:00:19;97826.63;;;2.18;92.86
72525;BME280;60547;48.502;8.996;2022-12-05T04:02:54;97834.09;;;2.21;92.92
72525;BME280;60547;48.502;8.996;2022-12-05T04:05:26;97826.22;;;2.16;92.38
72525;BME280;60547;48.502;8.996;2022-12-05T04:07:59;97828.94;;;2.13;93.32
72525;BME280;60547;48.502;8.996;2022-12-05T04:10:28;97829.69;;;2.06;93.19
72525;BME280;60547;48.502;8.996;2022-12-05T04:12:57;97836.38;;;2.12;92.71
72525;BME280;60547;48.502;8.996;2022-12-05T04:16:08;97820.22;;;2.00;93.12
72525;BME280;60547;48.502;8.996;2022-12-05T04:18:55;97832.03;;;2.08;92.27
72525;BME280;60547;48.502;8.996;2022-12-05T04:21:26;97830.88;;;2.09;92.80
72525;BME280;60547;48.502;8.996;2022-12-05T04:24:27;97836.66;;;1.97;93.42
72525;BME280;60547;48.502;8.996;2022-12-05T04:27:33;97846.78;;;1.89;93.61
72525;BME280;60547;48.502;8.996;2022-12-05T04:30:14;97853.81;;;1.83;93.66
72525;BME280;60547;48.502;8.996;2022-12-05T04:32:50;97851.81;;;1.80;93.95
72525;BME280;60547;48.502;8.996;2022-12-05T04:35:29;97857.75;;;1.85;93.96
72525;BME280;60547;48.502;8.996;2022-12-05T04:38:01;97865.53;;;1.80;93.33
72525;BME280;60547;48.502;8.996;2022-12-05T04:40:39;97862.34;;;1.74;93.78
72525;BME280;60547;48.502;8.996;2022-12-05T04:43:08;97859.28;;;1.83;93.05
72525;BME280;60547;48.502;8.996;2022-12-05T04:45:36;97858.91;;;1.84;93.12
72525;BME280;60547;48.502;8.996;2022-12-05T04:48:09;97856.97;;;1.88;93.65
72525;BME280;60547;48.502;8.996;2022-12-05T04:50:37;97862.44;;;1.85;93.28
72525;BME280;60547;48.502;8.996;2022-12-05T04:53:05;97860.47;;;1.82;93.73
72525;BME280;60547;48.502;8.996;2022-12-05T04:55:32;97860.88;;;1.84;93.32
72525;BME280;60547;48.502;8.996;2022-12-05T04:58:10;97854.13;;;1.74;93.79
72525;BME280;60547;48.502;8.996;2022-12-05T05:03:38;97876.13;;;1.81;93.91
72525;BME280;60547;48.502;8.996;2022-12-05T05:06:07;97873.44;;;1.88;93.10
72525;BME280;60547;48.502;8.996;2022-12-05T05:08:34;97869.84;;;1.81;94.15
72525;BME280;60547;48.502;8.996;2022-12-05T05:11:10;97868.72;;;1.85;93.19
72525;BME280;60547;48.502;8.996;2022-12-05T05:13:37;97880.56;;;1.97;93.34
72525;BME280;60547;48.502;8.996;2022-12-05T05:16:03;97882.94;;;1.98;94.07
72525;BME280;60547;48.502;8.996;2022-12-05T05:18:29;97883.75;;;2.02;93.63
72525;BME280;60547;48.502;8.996;2022-12-05T05:20:54;97883.28;;;1.93;94.21
72525;BME280;60547;48.502;8.996;2022-12-05T05:23:20;97894.19;;;1.86;94.33
72525;BME280;60547;48.502;8.996;2022-12-05T05:25:51;97902.47;;;1.93;94.35
72525;BME280;60547;48.502;8.996;2022-12-05T05:28:17;97903.31;;;1.97;93.88
72525;BME280;60547;48.502;8.996;2022-12-05T05:30:42;97901.78;;;2.03;93.79
72525;BME280;60547;48.502;8.996;2022-12-05T05:33:08;97901.78;;;2.03;93.52
72525;BME280;60547;48.502;8.996;2022-12-05T05:35:37;97893.16;;;2.05;94.03
72525;BME280;60547;48.502;8.996;2022-12-05T05:38:03;97896.31;;;2.07;94.26
72525;BME280;60547;48.502;8.996;2022-12-05T05:40:29;97905.69;;;2.02;94.70
72525;BME280;60547;48.502;8.996;2022-12-05T05:42:54;97907.63;;;1.98;94.91
72525;BME280;60547;48.502;8.996;2022-12-05T05:45:20;97909.19;;;1.99;94.55
72525;BME280;60547;48.502;8.996;2022-12-05T05:47:52;97901.75;;;2.00;94.85
72525;BME280;60547;48.502;8.996;2022-12-05T05:50:18;97893.13;;;2.01;94.17
72525;BME280;60547;48.502;8.996;2022-12-05T05:52:44;97897.41;;;1.95;94.14
72525;BME280;60547;48.502;8.996;2022-12-05T05:55:09;97908.34;;;1.91;94.67
72525;BME280;60547;48.502;8.996;2022-12-05T05:57:35;97927.59;;;1.95;95.30
72525;BME280;60547;48.502;8.996;2022-12-05T06:00:04;97920.53;;;1.98;94.19
72525;BME280;60547;48.502;8.996;2022-12-05T06:02:32;97927.22;;;2.00;94.63
72525;BME280;60547;48.502;8.996;2022-12-05T06:04:57;97931.19;;;2.03;94.53
72525;BME280;60547;48.502;8.996;2022-12-05T06:07:23;97941.75;;;2.01;94.14
72525;BME280;60547;48.502;8.996;2022-12-05T06:09:48;97931.56;;;2.01;93.83
72525;BME280;60547;48.502;8.996;2022-12-05T06:12:14;97937.44;;;2.03;94.24
72525;BME280;60547;48.502;8.996;2022-12-05T06:14:39;97944.91;;;2.03;94.08
72525;BME280;60547;48.502;8.996;2022-12-05T06:17:04;97935.13;;;2.05;94.45
72525;BME280;60547;48.502;8.996;2022-12-05T06:19:30;97951.94;;;2.00;93.97
72525;BME280;60547;48.502;8.996;2022-12-05T06:21:55;97949.59;;;2.02;94.35
72525;BME280;60547;48.502;8.996;2022-12-05T06:24:21;97949.56;;;1.99;94.02
72525;BME280;60547;48.502;8.996;2022-12-05T06:26:46;97947.19;;;1.97;94.50
72525;BME280;60547;48.502;8.996;2022-12-05T06:29:11;97938.56;;;1.95;94.72
72525;BME280;60547;48.502;8.996;2022-12-05T06:31:37;97936.97;;;1.94;94.44
72525;BME280;60547;48.502;8.996;2022-12-05T06:34:03;97952.75;;;2.04;95.02
72525;BME280;60547;48.502;8.996;2022-12-05T06:36:29;97946.91;;;2.09;94.42
72525;BME280;60547;48.502;8.996;2022-12-05T06:38:56;97927.59;;;1.95;94.30
72525;BME280;60547;48.502;8.996;2022-12-05T06:41:22;97928.75;;;1.94;94.66
72525;BME280;60547;48.502;8.996;2022-12-05T06:43:51;97939.78;;;2.01;94.56
72525;BME280;60547;48.502;8.996;2022-12-05T06:46:18;97944.09;;;2.02;94.73
72525;BME280;60547;48.502;8.996;2022-12-05T06:48:44;97964.53;;;2.08;94.30
72525;BME280;60547;48.502;8.996;2022-12-05T06:51:12;97972.31;;;1.99;94.34
72525;BME280;60547;48.502;8.996;2022-12-05T06:53:38;97977.78;;;1.99;94.24
72525;BME280;60547;48.502;8.996;2022-12-05T06:56:07;97976.22;;;1.98;94.06
72525;BME280;60547;48.502;8.996;2022-12-05T06:58:38;97994.78;;;2.15;93.81
72525;BME280;60547;48.502;8.996;2022-12-05T07:01:11;97990.81;;;2.09;93.60
72525;BME280;60547;48.502;8.996;2022-12-05T07:03:55;97997.06;;;2.06;94.07
72525;BME280;60547;48.502;8.996;2022-12-05T07:06:21;97997.81;;;2.03;93.82
72525;BME280;60547;48.502;8.996;2022-12-05T07:08:46;97996.66;;;2.04;94.40
72525;BME280;60547;48.502;8.996;2022-12-05T07:11:12;97997.03;;;2.03;94.56
72525;BME280;60547;48.502;8.996;2022-12-05T07:13:37;98001.78;;;2.09;94.17
72525;BME280;60547;48.502;8.996;2022-12-05T07:16:03;97998.56;;;2.00;94.14
72525;BME280;60547;48.502;8.996;2022-12-05T07:18:31;97987.94;;;1.95;94.51
72525;BME280;60547;48.502;8.996;2022-12-05T07:21:08;97983.63;;;1.94;94.58
72525;BME280;60547;48.502;8.996;2022-12-05T07:23:35;97997.38;;;1.98;95.68
72525;BME280;60547;48.502;8.996;2022-12-05T07:26:09;97999.84;;;2.10;94.54
72525;BME280;60547;48.502;8.996;2022-12-05T07:28:35;98004.59;;;2.16;94.71
72525;BME280;60547;48.502;8.996;2022-12-05T07:31:01;98004.66;;;2.23;94.55
72525;BME280;60547;48.502;8.996;2022-12-05T07:33:28;98000.81;;;2.32;93.75
72525;BME280;60547;48.502;8.996;2022-12-05T07:36:01;98001.50;;;2.21;93.41
72525;BME280;60547;48.502;8.996;2022-12-05T07:38:28;97991.63;;;2.13;93.88
72525;BME280;60547;48.502;8.996;2022-12-05T07:40:53;98006.16;;;2.14;94.78
72525;BME280;60547;48.502;8.996;2022-12-05T07:43:19;98004.56;;;2.13;94.54
72525;BME280;60547;48.502;8.996;2022-12-05T07:45:44;98000.75;;;2.24;93.94
72525;BME280;60547;48.502;8.996;2022-12-05T07:48:10;98000.00;;;2.28;94.43
72525;BME280;60547;48.502;8.996;2022-12-05T07:50:36;97994.13;;;2.29;93.43
72525;BME280;60547;48.502;8.996;2022-12-05T07:53:02;98007.94;;;2.40;93.95
72525;BME280;60547;48.502;8.996;2022-12-05T07:55:27;98015.00;;;2.41;93.53
72525;BME280;60547;48.502;8.996;2022-12-05T07:57:53;98026.78;;;2.41;92.90
72525;BME280;60547;48.502;8.996;2022-12-05T08:00:19;98017.81;;;2.48;93.22
72525;BME280;60547;48.502;8.996;2022-12-05T08:02:44;98020.63;;;2.55;93.39
72525;BME280;60547;48.502;8.996;2022-12-05T08:05:10;98022.91;;;2.46;93.42
72525;BME280;60547;48.502;8.996;2022-12-05T08:07:35;98039.13;;;2.65;93.39
72525;BME280;60547;48.502;8.996;2022-12-05T08:10:01;98041.06;;;2.61;92.83
72525;BME280;60547;48.502;8.996;2022-12-05T08:12:26;98036.31;;;2.54;92.67
72525;BME280;60547;48.502;8.996;2022-12-05T08:14:51;98041.03;;;2.57;93.43
72525;BME280;60547;48.502;8.996;2022-12-05T08:17:17;98050.88;;;2.58;93.44
72525;BME280;60547;48.502;8.996;2022-12-05T08:19:43;98060.75;;;2.67;92.98
72525;BME280;60547;48.502;8.996;2022-12-05T08:22:08;98059.16;;;2.66;93.44
72525;BME280;60547;48.502;8.996;2022-12-05T08:24:34;98056.78;;;2.64;93.46
72525;BME280;60547;48.502;8.996;2022-12-05T08:26:59;98022.16;;;2.52;93.06
72525;BME280;60547;48.502;8.996;2022-12-05T08:29:24;98059.66;;;2.78;92.70
72525;BME280;60547;48.502;8.996;2022-12-05T08:31:50;98052.28;;;2.89;92.86
72525;BME280;60547;48.502;8.996;2022-12-05T08:34:17;98048.34;;;2.90;92.34
72525;BME280;60547;48.502;8.996;2022-12-05T08:36:43;98048.78;;;2.96;92.00
72525;BME280;60547;48.502;8.996;2022-12-05T08:39:11;98060.22;;;3.02;92.06
72525;BME280;60547;48.502;8.996;2022-12-05T08:41:39;98053.19;;;3.08;92.18
72525;BME280;60547;48.502;8.996;2022-12-05T08:44:05;98040.22;;;3.08;91.93
72525;BME280;60547;48.502;8.996;2022-12-05T08:46:34;98029.19;;;3.01;92.85
72525;BME280;60547;48.502;8.996;2022-12-05T08:49:00;98020.94;;;3.01;92.74
72525;BME280;60547;48.502;8.996;2022-12-05T08:51:26;98026.47;;;3.08;92.22
72525;BME280;60547;48.502;8.996;2022-12-05T08:53:51;98030.34;;;3.00;92.93
72525;BME280;60547;48.502;8.996;2022-12-05T08:56:17;98059.44;;;3.05;92.88
72525;BME280;60547;48.502;8.996;2022-12-05T08:58:43;98068.16;;;3.14;92.41
72525;BME280;60547;48.502;8.996;2022-12-05T09:01:13;98077.16;;;3.11;92.56
72525;BME280;60547;48.502;8.996;2022-12-05T09:03:39;98071.63;;;3.04;92.66
72525;BME280;60547;48.502;8.996;2022-12-05T09:06:14;98075.16;;;3.08;92.66
72525;BME280;60547;48.502;8.996;2022-12-05T09:08:41;98086.56;;;3.06;93.24
72525;BME280;60547;48.502;8.996;2022-12-05T09:11:09;98093.56;;;3.00;93.47
72525;BME280;60547;48.502;8.996;2022-12-05T09:13:35;98107.34;;;3.04;93.62
72525;BME280;60547;48.502;8.996;2022-12-05T09:16:11;98105.44;;;3.11;92.50
72525;BME280;60547;48.502;8.996;2022-12-05T09:18:38;98101.53;;;3.16;92.57
72525;BME280;60547;48.502;8.996;2022-12-05T09:21:07;98101.50;;;3.09;92.40
72525;BME280;60547;48.502;8.996;2022-12-05T09:23:34;98116.44;;;3.11;93.07
72525;BME280;60547;48.502;8.996;2022-12-05T09:26:00;98115.28;;;3.16;93.46
72525;BME280;60547;48.502;8.996;2022-12-05T09:28:26;98103.06;;;3.10;94.08
72525;BME280;60547;48.502;8.996;2022-12-05T09:31:03;98102.72;;;3.15;94.05
72525;BME280;60547;48.502;8.996;2022-12-05T09:33:29;98106.28;;;3.22;93.43
72525;BME280;60547;48.502;8.996;2022-12-05T09:35:55;98099.25;;;3.25;93.36
72525;BME280;60547;48.502;8.996;2022-12-05T09:38:21;98104.38;;;3.30;93.16
72525;BME280;60547;48.502;8.996;2022-12-05T09:40:53;98105.16;;;3.27;93.96
72525;BME280;60547;48.502;8.996;2022-12-05T09:49:04;98116.25;;;3.41;91.42
72525;BME280;60547;48.502;8.996;2022-12-05T09:51:31;98114.25;;;3.38;92.11
72525;BME280;60547;48.502;8.996;2022-12-05T09:53:57;98111.50;;;3.38;92.21
72525;BME280;60547;48.502;8.996;2022-12-05T09:56:26;98107.25;;;3.48;91.90
72525;BME280;60547;48.502;8.996;2022-12-05T09:58:54;98104.94;;;3.57;91.39
72525;BME280;60547;48.502;8.996;2022-12-05T10:17:30;98111.69;;;3.74;91.67
72525;BME280;60547;48.502;8.996;2022-12-05T10:19:59;98104.22;;;3.71;91.28
72525;BME280;60547;48.502;8.996;2022-12-05T10:22:32;98103.00;;;3.61;91.45
72525;BME280;60547;48.502;8.996;2022-12-05T10:25:03;98094.00;;;3.75;91.41
72525;BME280;60547;48.502;8.996;2022-12-05T10:27:41;98089.66;;;3.70;92.48
72525;BME280;60547;48.502;8.996;2022-12-05T10:30:19;98092.84;;;3.76;92.96
72525;BME280;60547;48.502;8.996;2022-12-05T10:35:17;98105.44;;;3.80;92.76
72525;BME280;60547;48.502;8.996;2022-12-05T10:37:52;98104.25;;;3.81;92.67
72525;BME280;60547;48.502;8.996;2022-12-05T10:40:19;98098.41;;;3.90;92.36
72525;BME280;60547;48.502;8.996;2022-12-05T10:42:46;98096.84;;;3.96;92.18
72525;BME280;60547;48.502;8.996;2022-12-05T10:45:15;98101.22;;;4.08;92.34
72525;BME280;60547;48.502;8.996;2022-12-05T10:47:41;98107.16;;;4.28;91.45
72525;BME280;60547;48.502;8.996;2022-12-05T10:50:31;98105.63;;;4.34;91.11
72525;BME280;60547;48.502;8.996;2022-12-05T10:53:01;98090.69;;;4.49;90.29
72525;BME280;60547;48.502;8.996;2022-12-05T10:55:39;98097.41;;;4.62;90.88
72525;BME280;60547;48.502;8.996;2022-12-05T10:58:11;98087.56;;;4.68;90.81
72525;BME280;60547;48.502;8.996;2022-12-05T11:00:38;98063.16;;;4.70;90.65
72525;BME280;60547;48.502;8.996;2022-12-05T11:05:49;98074.94;;;5.03;88.93
72525;BME280;60547;48.502;8.996;2022-12-05T11:08:22;98071.41;;;4.99;87.36
72525;BME280;60547;48.502;8.996;2022-12-05T11:10:48;98079.66;;;5.09;87.48
72525;BME280;60547;48.502;8.996;2022-12-05T11:13:21;98072.97;;;5.03;86.52
72525;BME280;60547;48.502;8.996;2022-12-05T11:15:48;98073.78;;;4.97;86.31
72525;BME280;60547;48.502;8.996;2022-12-05T11:20:48;98071.41;;;4.99;85.99
72525;BME280;60547;48.502;8.996;2022-12-05T11:23:28;98075.75;;;4.96;86.45
72525;BME280;60547;48.502;8.996;2022-12-05T11:25:55;98075.75;;;4.93;86.10
72525;BME280;60547;48.502;8.996;2022-12-05T11:28:26;98071.81;;;5.01;86.51
72525;BME280;60547;48.502;8.996;2022-12-05T11:30:57;98079.66;;;5.16;86.84
72525;BME280;60547;48.502;8.996;2022-12-05T11:33:25;98083.56;;;5.33;85.67
72525;BME280;60547;48.502;8.996;2022-12-05T11:35:53;98075.69;;;5.35;86.04
72525;BME280;60547;48.502;8.996;2022-12-05T11:38:25;98078.44;;;5.42;84.93
72525;BME280;60547;48.502;8.996;2022-12-05T11:49:41;98068.50;;;5.70;84.50
72525;BME280;60547;48.502;8.996;2022-12-05T11:52:34;98069.53;;;6.11;83.91
72525;BME280;60547;48.502;8.996;2022-12-05T12:04:14;98056.31;;;6.40;78.09
72525;BME280;60547;48.502;8.996;2022-12-05T12:12:38;98047.78;;;6.17;77.90
72525;BME280;60547;48.502;8.996;2022-12-05T12:18:34;98049.44;;;6.00;78.64
72525;BME280;60547;48.502;8.996;2022-12-05T12:23:55;98049.44;;;6.04;78.69
72525;BME280;60547;48.502;8.996;2022-12-05T12:29:27;98058.16;;;5.88;78.33
72525;BME280;60547;48.502;8.996;2022-12-05T12:37:46;98061.31;;;5.97;78.71
72525;BME280;60547;48.502;8.996;2022-12-05T12:40:36;98060.91;;;5.99;79.18
72525;BME280;60547;48.502;8.996;2022-12-05T12:48:44;98058.50;;;6.04;78.70
72525;BME280;60547;48.502;8.996;2022-12-05T12:51:13;98061.66;;;6.06;78.85
72525;BME280;60547;48.502;8.996;2022-12-05T12:57:42;98057.25;;;6.16;77.86
72525;BME280;60547;48.502;8.996;2022-12-05T13:03:16;98058.09;;;6.06;77.21
72525;BME280;60547;48.502;8.996;2022-12-05T13:10:50;98045.03;;;6.13;76.70
72525;BME280;60547;48.502;8.996;2022-12-05T13:13:20;98050.16;;;6.19;77.06
72525;BME280;60547;48.502;8.996;2022-12-05T13:15:50;98039.81;;;6.30;76.76
72525;BME280;60547;48.502;8.996;2022-12-05T13:18:19;98040.97;;;6.36;76.51
72525;BME280;60547;48.502;8.996;2022-12-05T13:20:50;98033.03;;;6.41;75.70
72525;BME280;60547;48.502;8.996;2022-12-05T13:23:20;98036.22;;;6.36;77.11
72525;BME280;60547;48.502;8.996;2022-12-05T13:25:47;98038.19;;;6.36;75.51
72525;BME280;60547;48.502;8.996;2022-12-05T13:28:35;98033.88;;;6.31;75.87
72525;BME280;60547;48.502;8.996;2022-12-05T13:31:08;98040.63;;;6.27;75.95
72525;BME280;60547;48.502;8.996;2022-12-05T13:33:35;98042.22;;;6.24;76.16
72525;BME280;60547;48.502;8.996;2022-12-05T13:36:24;98034.41;;;6.08;76.26
72525;BME280;60547;48.502;8.996;2022-12-05T13:39:20;98041.44;;;6.20;76.38
72525;BME280;60547;48.502;8.996;2022-12-05T13:42:05;98048.19;;;6.15;76.68
72525;BME280;60547;48.502;8.996;2022-12-05T13:44:56;98053.38;;;6.03;75.28
72525;BME280;60547;48.502;8.996;2022-12-05T13:50:13;98065.66;;;5.95;75.15
72525;BME280;60547;48.502;8.996;2022-12-05T13:52:55;98068.84;;;5.90;74.82
72525;BME280;60547;48.502;8.996;2022-12-05T13:55:27;98071.97;;;5.88;74.15
72525;BME280;60547;48.502;8.996;2022-12-05T13:57:55;98063.75;;;5.74;74.08
72525;BME280;60547;48.502;8.996;2022-12-05T14:00:27;98070.84;;;5.75;74.44
72525;BME280;60547;48.502;8.996;2022-12-05T14:02:59;98073.22;;;5.73;74.47
72525;BME280;60547;48.502;8.996;2022-12-05T14:05:38;98074.00;;;5.70;75.17
72525;BME280;60547;48.502;8.996;2022-12-05T14:21:46;98072.09;;;5.53;75.61
72525;BME280;60547;48.502;8.996;2022-12-05T14:27:42;98087.09;;;5.44;75.29
72525;BME280;60547;48.502;8.996;2022-12-05T14:33:14;98080.44;;;5.28;76.26
72525;BME280;60547;48.502;8.996;2022-12-05T14:35:45;98074.94;;;5.21;77.07
72525;BME280;60547;48.502;8.996;2022-12-05T14:38:26;98085.16;;;5.34;76.23
72525;BME280;60547;48.502;8.996;2022-12-05T14:40:54;98093.44;;;5.27;76.88
72525;BME280;60547;48.502;8.996;2022-12-05T14:43:29;98086.34;;;5.26;76.47
72525;BME280;60547;48.502;8.996;2022-12-05T14:46:01;98091.88;;;5.19;77.68
72525;BME280;60547;48.502;8.996;2022-12-05T14:48:34;98091.47;;;5.31;76.74
72525;BME280;60547;48.502;8.996;2022-12-05T14:51:01;98082.41;;;5.16;76.06
72525;BME280;60547;48.502;8.996;2022-12-05T14:53:47;98082.03;;;5.14;76.15
72525;BME280;60547;48.502;8.996;2022-12-05T14:56:19;98082.81;;;5.15;76.71
72525;BME280;60547;48.502;8.996;2022-12-05T14:58:48;98095.81;;;5.11;76.82
72525;BME280;60547;48.502;8.996;2022-12-05T15:06:36;98083.63;;;4.91;77.87
72525;BME280;60547;48.502;8.996;2022-12-05T15:09:07;98088.34;;;4.94;77.45
72525;BME280;60547;48.502;8.996;2022-12-05T15:11:45;98088.34;;;4.90;78.10
72525;BME280;60547;48.502;8.996;2022-12-05T15:14:20;98091.09;;;4.86;78.69
72525;BME280;60547;48.502;8.996;2022-12-05T15:16:50;98086.78;;;4.82;79.23
72525;BME280;60547;48.502;8.996;2022-12-05T15:19:22;98097.00;;;4.81;79.48
72525;BME280;60547;48.502;8.996;2022-12-05T15:21:51;98090.31;;;4.75;79.41
72525;BME280;60547;48.502;8.996;2022-12-05T15:24:21;98099.38;;;4.72;80.24
72525;BME280;60547;48.502;8.996;2022-12-05T15:29:15;98089.50;;;4.57;80.98
72525;BME280;60547;48.502;8.996;2022-12-05T15:31:47;98090.28;;;4.47;81.50
72525;BME280;60547;48.502;8.996;2022-12-05T15:37:11;98096.97;;;4.39;82.20
72525;BME280;60547;48.502;8.996;2022-12-05T15:40:09;98102.88;;;4.37;82.52
72525;BME280;60547;48.502;8.996;2022-12-05T15:42:42;98104.03;;;4.33;82.60
72525;BME280;60547;48.502;8.996;2022-12-05T15:47:38;98103.22;;;4.21;83.02
72525;BME280;60547;48.502;8.996;2022-12-05T15:50:04;98104.00;;;4.18;82.90
72525;BME280;60547;48.502;8.996;2022-12-05T15:52:40;98106.34;;;4.09;82.44
72525;BME280;60547;48.502;8.996;2022-12-05T15:55:14;98114.19;;;4.11;82.74